sensor_id;sensor_type;location;lat;lon;timestamp;temperature;humidity
23403;DHT22;11874;48.228;11.684;2022-11-15T00:00:48;7.50;99.90
23403;DHT22;11874;48.228;11.684;2022-11-15T00:03:16;7.60;99.90
23403;DHT22;11874;48.228;11.684;2022-11-15T00:05:45;7.60;99.90
23403;DHT22;11874;48.228;11.684;2022-11-15T00:08:13;7.60;99.90
23403;DHT22;11874;48.228;11.684;2022-11-15T00:10:53;7.60;99.90
23403;DHT22;11874;48.228;11.684;2022-11-15T00:13:21;7.70;99.90
23403;DHT22;11874;48.228;11.684;2022-11-15T00:15:49;7.60;99.90
23403;DHT22;11874;48.228;11.684;2022-11-15T00:18:18;7.60;99.90
23403;DHT22;11874;48.228;11.684;2022-11-15T00:20:46;7.60;99.90
23403;DHT22;11874;48.228;11.684;2022-11-15T00:23:14;7.60;99.90
23403;DHT22;11874;48.228;11.684;2022-11-15T00:25:44;7.60;99.90
23403;DHT22;11874;48.228;11.684;2022-11-15T00:28:12;7.50;99.90
23403;DHT22;11874;48.228;11.684;2022-11-15T00:30:40;7.40;99.90
23403;DHT22;11874;48.228;11.684;2022-11-15T00:33:08;7.50;99.90
23403;DHT22;11874;48.228;11.684;2022-11-15T00:35:37;7.50;99.90
23403;DHT22;11874;48.228;11.684;2022-11-15T00:38:05;7.50;99.90
23403;DHT22;11874;48.228;11.684;2022-11-15T00:40:33;7.50;99.90
23403;DHT22;11874;48.228;11.684;2022-11-15T00:43:02;7.60;99.90
23403;DHT22;11874;48.228;11.684;2022-11-15T00:45:30;7.40;99.90
23403;DHT22;11874;48.228;11.684;2022-11-15T00:47:57;7.40;99.90
23403;DHT22;11874;48.228;11.684;2022-11-15T00:50:25;7.40;99.90
23403;DHT22;11874;48.228;11.684;2022-11-15T00:52:53;7.40;99.90
23403;DHT22;11874;48.228;11.684;2022-11-15T00:55:21;7.50;99.90
23403;DHT22;11874;48.228;11.684;2022-11-15T00:57:49;7.70;99.90
23403;DHT22;11874;48.228;11.684;2022-11-15T01:00:18;7.40;99.90
23403;DHT22;11874;48.228;11.684;2022-11-15T01:02:46;7.40;99.90
23403;DHT22;11874;48.228;11.684;2022-11-15T01:05:14;7.40;99.90
23403;DHT22;11874;48.228;11.684;2022-11-15T01:07:42;7.50;99.90
23403;DHT22;11874;48.228;11.684;2022-11-15T01:10:09;7.50;99.90
23403;DHT22;11874;48.228;11.684;2022-11-15T01:12:37;7.50;99.90
23403;DHT22;11874;48.228;11.684;2022-11-15T01:15:06;7.50;99.90
23403;DHT22;11874;48.228;11.684;2022-11-15T01:17:35;7.50;99.90
23403;DHT22;11874;48.228;11.684;2022-11-15T01:20:04;7.50;99.90
23403;DHT22;11874;48.228;11.684;2022-11-15T01:22:32;7.50;99.90
23403;DHT22;11874;48.228;11.684;2022-11-15T01:24:59;7.50;99.90
23403;DHT22;11874;48.228;11.684;2022-11-15T01:27:27;7.60;99.90
23403;DHT22;11874;48.228;11.684;2022-11-15T01:29:55;8.10;99.90
23403;DHT22;11874;48.228;11.684;2022-11-15T01:32:23;7.60;99.90
23403;DHT22;11874;48.228;11.684;2022-11-15T01:34:52;7.60;99.90
23403;DHT22;11874;48.228;11.684;2022-11-15T01:37:20;7.60;99.90
23403;DHT22;11874;48.228;11.684;2022-11-15T01:39:48;7.60;99.90
23403;DHT22;11874;48.228;11.684;2022-11-15T01:42:16;7.60;99.90
23403;DHT22;11874;48.228;11.684;2022-11-15T01:44:47;7.60;99.90
23403;DHT22;11874;48.228;11.684;2022-11-15T01:47:18;7.60;99.90
23403;DHT22;11874;48.228;11.684;2022-11-15T01:49:54;7.60;99.90
23403;DHT22;11874;48.228;11.684;2022-11-15T01:52:25;7.60;99.90
23403;DHT22;11874;48.228;11.684;2022-11-15T01:54:58;7.60;99.90
23403;DHT22;11874;48.228;11.684;2022-11-15T01:57:29;7.50;99.90
23403;DHT22;11874;48.228;11.684;2022-11-15T01:59:57;7.40;99.90
23403;DHT22;11874;48.228;11.684;2022-11-15T02:02:27;7.50;99.90
23403;DHT22;11874;48.228;11.684;2022-11-15T02:04:56;7.50;99.90
23403;DHT22;11874;48.228;11.684;2022-11-15T02:07:24;7.50;99.90
23403;DHT22;11874;48.228;11.684;2022-11-15T02:09:52;7.40;99.90
23403;DHT22;11874;48.228;11.684;2022-11-15T02:12:22;7.40;99.90
23403;DHT22;11874;48.228;11.684;2022-11-15T02:14:52;7.40;99.90
23403;DHT22;11874;48.228;11.684;2022-11-15T02:17:39;7.40;99.90
23403;DHT22;11874;48.228;11.684;2022-11-15T02:20:54;7.40;99.90
23403;DHT22;11874;48.228;11.684;2022-11-15T02:24:01;7.30;99.90
23403;DHT22;11874;48.228;11.684;2022-11-15T02:27:02;7.30;99.90
23403;DHT22;11874;48.228;11.684;2022-11-15T02:29:48;7.30;99.90
23403;DHT22;11874;48.228;11.684;2022-11-15T02:32:31;7.30;99.90
23403;DHT22;11874;48.228;11.684;2022-11-15T02:35:10;7.20;99.90
23403;DHT22;11874;48.228;11.684;2022-11-15T02:37:44;7.20;99.90
23403;DHT22;11874;48.228;11.684;2022-11-15T02:40:22;7.20;99.90
23403;DHT22;11874;48.228;11.684;2022-11-15T02:42:55;7.20;99.90
23403;DHT22;11874;48.228;11.684;2022-11-15T02:45:45;7.20;99.90
23403;DHT22;11874;48.228;11.684;2022-11-15T02:48:17;7.00;99.90
23403;DHT22;11874;48.228;11.684;2022-11-15T02:50:47;7.10;99.90
23403;DHT22;11874;48.228;11.684;2022-11-15T02:53:15;7.10;99.90
23403;DHT22;11874;48.228;11.684;2022-11-15T02:55:45;7.10;99.90
23403;DHT22;11874;48.228;11.684;2022-11-15T02:58:37;7.10;99.90
23403;DHT22;11874;48.228;11.684;2022-11-15T03:01:14;7.00;99.90
23403;DHT22;11874;48.228;11.684;2022-11-15T03:03:57;7.10;99.90
23403;DHT22;11874;48.228;11.684;2022-11-15T03:06:32;7.10;99.90
23403;DHT22;11874;48.228;11.684;2022-11-15T03:09:06;7.00;99.90
23403;DHT22;11874;48.228;11.684;2022-11-15T03:11:37;7.00;99.90
23403;DHT22;11874;48.228;11.684;2022-11-15T03:14:13;7.00;99.90
23403;DHT22;11874;48.228;11.684;2022-11-15T03:16:49;7.00;99.90
23403;DHT22;11874;48.228;11.684;2022-11-15T03:19:28;7.00;99.90
23403;DHT22;11874;48.228;11.684;2022-11-15T03:22:00;7.00;99.90
23403;DHT22;11874;48.228;11.684;2022-11-15T03:24:33;7.00;99.90
23403;DHT22;11874;48.228;11.684;2022-11-15T03:27:03;6.90;99.90
23403;DHT22;11874;48.228;11.684;2022-11-15T03:29:35;7.00;99.90
23403;DHT22;11874;48.228;11.684;2022-11-15T03:32:06;6.90;99.90
23403;DHT22;11874;48.228;11.684;2022-11-15T03:34:39;6.90;99.90
23403;DHT22;11874;48.228;11.684;2022-11-15T03:37:10;6.90;99.90
23403;DHT22;11874;48.228;11.684;2022-11-15T03:39:39;6.90;99.90
23403;DHT22;11874;48.228;11.684;2022-11-15T03:42:16;6.80;99.90
23403;DHT22;11874;48.228;11.684;2022-11-15T03:44:51;6.80;99.90
23403;DHT22;11874;48.228;11.684;2022-11-15T03:47:23;6.80;99.90
23403;DHT22;11874;48.228;11.684;2022-11-15T03:49:59;6.80;99.90
23403;DHT22;11874;48.228;11.684;2022-11-15T03:52:31;6.80;99.90
23403;DHT22;11874;48.228;11.684;2022-11-15T03:55:02;7.00;99.90
23403;DHT22;11874;48.228;11.684;2022-11-15T03:57:30;7.10;99.90
23403;DHT22;11874;48.228;11.684;2022-11-15T03:59:58;6.70;99.90
23403;DHT22;11874;48.228;11.684;2022-11-15T04:02:26;6.80;99.90
23403;DHT22;11874;48.228;11.684;2022-11-15T04:04:56;6.80;99.90
23403;DHT22;11874;48.228;11.684;2022-11-15T04:07:23;6.80;99.90
23403;DHT22;11874;48.228;11.684;2022-11-15T04:09:52;6.80;99.90
23403;DHT22;11874;48.228;11.684;2022-11-15T04:12:33;6.80;99.90
23403;DHT22;11874;48.228;11.684;2022-11-15T04:15:03;6.90;99.90
23403;DHT22;11874;48.228;11.684;2022-11-15T04:17:36;6.80;99.90
23403;DHT22;11874;48.228;11.684;2022-11-15T04:20:08;6.80;99.90
23403;DHT22;11874;48.228;11.684;2022-11-15T04:22:54;6.80;99.90
23403;DHT22;11874;48.228;11.684;2022-11-15T04:25:39;6.80;99.90
23403;DHT22;11874;48.228;11.684;2022-11-15T04:28:07;6.80;99.90
23403;DHT22;11874;48.228;11.684;2022-11-15T04:30:35;6.60;99.90
23403;DHT22;11874;48.228;11.684;2022-11-15T04:33:03;6.90;99.90
23403;DHT22;11874;48.228;11.684;2022-11-15T04:35:32;6.70;99.90
23403;DHT22;11874;48.228;11.684;2022-11-15T04:38:02;6.80;99.90
23403;DHT22;11874;48.228;11.684;2022-11-15T04:40:29;6.80;99.90
23403;DHT22;11874;48.228;11.684;2022-11-15T04:42:57;6.80;99.90
23403;DHT22;11874;48.228;11.684;2022-11-15T04:45:29;6.70;99.90
23403;DHT22;11874;48.228;11.684;2022-11-15T04:47:57;6.70;99.90
23403;DHT22;11874;48.228;11.684;2022-11-15T04:50:25;6.70;99.90
23403;DHT22;11874;48.228;11.684;2022-11-15T04:52:54;6.70;99.90
23403;DHT22;11874;48.228;11.684;2022-11-15T04:55:22;6.90;99.90
23403;DHT22;11874;48.228;11.684;2022-11-15T04:57:57;6.70;99.90
23403;DHT22;11874;48.228;11.684;2022-11-15T05:00:27;6.70;99.90
23403;DHT22;11874;48.228;11.684;2022-11-15T05:02:55;6.70;99.90
23403;DHT22;11874;48.228;11.684;2022-11-15T05:05:41;6.70;99.90
23403;DHT22;11874;48.228;11.684;2022-11-15T05:08:10;6.60;99.90
23403;DHT22;11874;48.228;11.684;2022-11-15T05:10:38;6.60;99.90
23403;DHT22;11874;48.228;11.684;2022-11-15T05:13:06;6.70;99.90
23403;DHT22;11874;48.228;11.684;2022-11-15T05:15:34;6.60;99.90
23403;DHT22;11874;48.228;11.684;2022-11-15T05:18:01;6.50;99.90
23403;DHT22;11874;48.228;11.684;2022-11-15T05:20:29;6.80;99.90
23403;DHT22;11874;48.228;11.684;2022-11-15T05:22:57;6.60;99.90
23403;DHT22;11874;48.228;11.684;2022-11-15T05:25:26;6.60;99.90
23403;DHT22;11874;48.228;11.684;2022-11-15T05:27:54;6.60;99.90
23403;DHT22;11874;48.228;11.684;2022-11-15T05:30:22;6.50;99.90
23403;DHT22;11874;48.228;11.684;2022-11-15T05:32:50;6.50;99.90
23403;DHT22;11874;48.228;11.684;2022-11-15T05:35:21;6.40;99.90
23403;DHT22;11874;48.228;11.684;2022-11-15T05:37:53;6.50;99.90
23403;DHT22;11874;48.228;11.684;2022-11-15T05:40:21;6.50;99.90
23403;DHT22;11874;48.228;11.684;2022-11-15T05:42:50;6.50;99.90
23403;DHT22;11874;48.228;11.684;2022-11-15T05:45:18;6.50;99.90
23403;DHT22;11874;48.228;11.684;2022-11-15T05:47:53;6.50;99.90
23403;DHT22;11874;48.228;11.684;2022-11-15T05:50:23;6.40;99.90
23403;DHT22;11874;48.228;11.684;2022-11-15T05:52:51;6.40;99.90
23403;DHT22;11874;48.228;11.684;2022-11-15T05:55:19;6.40;99.90
23403;DHT22;11874;48.228;11.684;2022-11-15T05:57:47;6.40;99.90
23403;DHT22;11874;48.228;11.684;2022-11-15T06:00:17;6.50;99.90
23403;DHT22;11874;48.228;11.684;2022-11-15T06:02:45;6.40;99.90
23403;DHT22;11874;48.228;11.684;2022-11-15T06:05:13;6.30;99.90
23403;DHT22;11874;48.228;11.684;2022-11-15T06:07:40;6.40;99.90
23403;DHT22;11874;48.228;11.684;2022-11-15T06:10:09;6.40;99.90
23403;DHT22;11874;48.228;11.684;2022-11-15T06:12:37;6.30;99.90
23403;DHT22;11874;48.228;11.684;2022-11-15T06:15:05;6.50;99.90
23403;DHT22;11874;48.228;11.684;2022-11-15T06:17:35;6.40;99.90
23403;DHT22;11874;48.228;11.684;2022-11-15T06:20:03;6.40;99.90
23403;DHT22;11874;48.228;11.684;2022-11-15T06:22:31;6.30;99.90
23403;DHT22;11874;48.228;11.684;2022-11-15T06:24:59;6.30;99.90
23403;DHT22;11874;48.228;11.684;2022-11-15T06:27:31;6.30;99.90
23403;DHT22;11874;48.228;11.684;2022-11-15T06:29:59;6.30;99.90
23403;DHT22;11874;48.228;11.684;2022-11-15T06:32:28;6.30;99.90
23403;DHT22;11874;48.228;11.684;2022-11-15T06:34:57;6.40;99.90
23403;DHT22;11874;48.228;11.684;2022-11-15T06:37:25;6.30;99.90
23403;DHT22;11874;48.228;11.684;2022-11-15T06:39:53;6.60;99.90
23403;DHT22;11874;48.228;11.684;2022-11-15T06:42:21;6.40;99.90
23403;DHT22;11874;48.228;11.684;2022-11-15T06:44:48;6.30;99.90
23403;DHT22;11874;48.228;11.684;2022-11-15T06:47:16;6.10;99.90
23403;DHT22;11874;48.228;11.684;2022-11-15T06:49:44;6.50;99.90
23403;DHT22;11874;48.228;11.684;2022-11-15T06:52:13;6.20;99.90
23403;DHT22;11874;48.228;11.684;2022-11-15T06:54:41;6.30;99.90
23403;DHT22;11874;48.228;11.684;2022-11-15T06:57:09;6.40;99.90
23403;DHT22;11874;48.228;11.684;2022-11-15T06:59:37;6.40;99.90
23403;DHT22;11874;48.228;11.684;2022-11-15T07:02:10;6.80;99.90
23403;DHT22;11874;48.228;11.684;2022-11-15T07:04:38;6.20;99.90
23403;DHT22;11874;48.228;11.684;2022-11-15T07:07:06;6.40;99.90
23403;DHT22;11874;48.228;11.684;2022-11-15T07:09:35;6.40;99.90
23403;DHT22;11874;48.228;11.684;2022-11-15T07:12:04;6.40;99.90
23403;DHT22;11874;48.228;11.684;2022-11-15T07:14:34;6.40;99.90
23403;DHT22;11874;48.228;11.684;2022-11-15T07:17:03;6.40;99.90
23403;DHT22;11874;48.228;11.684;2022-11-15T07:19:31;6.50;99.90
23403;DHT22;11874;48.228;11.684;2022-11-15T07:21:59;6.30;99.90
23403;DHT22;11874;48.228;11.684;2022-11-15T07:24:27;6.30;99.90
23403;DHT22;11874;48.228;11.684;2022-11-15T07:26:56;6.50;99.90
23403;DHT22;11874;48.228;11.684;2022-11-15T07:29:25;6.50;99.90
23403;DHT22;11874;48.228;11.684;2022-11-15T07:31:53;6.60;99.90
23403;DHT22;11874;48.228;11.684;2022-11-15T07:34:21;6.60;99.90
23403;DHT22;11874;48.228;11.684;2022-11-15T07:36:50;6.60;99.90
23403;DHT22;11874;48.228;11.684;2022-11-15T07:39:18;6.60;99.90
23403;DHT22;11874;48.228;11.684;2022-11-15T07:41:45;6.60;99.90
23403;DHT22;11874;48.228;11.684;2022-11-15T07:44:16;6.70;99.90
23403;DHT22;11874;48.228;11.684;2022-11-15T07:46:43;6.60;99.90
23403;DHT22;11874;48.228;11.684;2022-11-15T07:49:11;6.70;99.90
23403;DHT22;11874;48.228;11.684;2022-11-15T07:51:39;6.60;99.90
23403;DHT22;11874;48.228;11.684;2022-11-15T07:54:07;6.70;99.90
23403;DHT22;11874;48.228;11.684;2022-11-15T07:56:35;7.20;99.90
23403;DHT22;11874;48.228;11.684;2022-11-15T07:59:03;6.80;99.90
23403;DHT22;11874;48.228;11.684;2022-11-15T08:01:32;6.80;99.90
23403;DHT22;11874;48.228;11.684;2022-11-15T08:04:00;6.80;99.90
23403;DHT22;11874;48.228;11.684;2022-11-15T08:06:27;6.80;99.90
23403;DHT22;11874;48.228;11.684;2022-11-15T08:08:55;6.70;99.90
23403;DHT22;11874;48.228;11.684;2022-11-15T08:11:23;6.90;99.90
23403;DHT22;11874;48.228;11.684;2022-11-15T08:13:51;6.90;99.90
23403;DHT22;11874;48.228;11.684;2022-11-15T08:16:19;6.90;99.90
23403;DHT22;11874;48.228;11.684;2022-11-15T08:18:48;7.00;99.90
23403;DHT22;11874;48.228;11.684;2022-11-15T08:21:19;7.00;99.90
23403;DHT22;11874;48.228;11.684;2022-11-15T08:23:48;7.60;99.90
23403;DHT22;11874;48.228;11.684;2022-11-15T08:26:16;7.50;99.90
23403;DHT22;11874;48.228;11.684;2022-11-15T08:28:44;7.10;99.90
23403;DHT22;11874;48.228;11.684;2022-11-15T08:31:14;7.10;99.90
23403;DHT22;11874;48.228;11.684;2022-11-15T08:33:43;7.10;99.90
23403;DHT22;11874;48.228;11.684;2022-11-15T08:36:15;7.10;99.90
23403;DHT22;11874;48.228;11.684;2022-11-15T08:38:43;7.10;99.90
23403;DHT22;11874;48.228;11.684;2022-11-15T08:41:14;7.30;99.90
23403;DHT22;11874;48.228;11.684;2022-11-15T08:43:43;7.20;99.90
23403;DHT22;11874;48.228;11.684;2022-11-15T08:46:12;7.30;99.90
23403;DHT22;11874;48.228;11.684;2022-11-15T08:48:41;7.50;99.90
23403;DHT22;11874;48.228;11.684;2022-11-15T08:51:09;7.40;99.90
23403;DHT22;11874;48.228;11.684;2022-11-15T08:53:38;7.50;99.90
23403;DHT22;11874;48.228;11.684;2022-11-15T08:56:07;7.50;99.90
23403;DHT22;11874;48.228;11.684;2022-11-15T08:58:35;7.50;99.90
23403;DHT22;11874;48.228;11.684;2022-11-15T09:01:04;7.50;99.90
23403;DHT22;11874;48.228;11.684;2022-11-15T09:03:32;7.60;99.90
23403;DHT22;11874;48.228;11.684;2022-11-15T09:06:01;8.20;99.90
23403;DHT22;11874;48.228;11.684;2022-11-15T09:08:30;7.70;99.90
23403;DHT22;11874;48.228;11.684;2022-11-15T09:11:15;7.70;99.90
23403;DHT22;11874;48.228;11.684;2022-11-15T09:13:46;7.70;99.90
23403;DHT22;11874;48.228;11.684;2022-11-15T09:16:14;7.80;99.90
23403;DHT22;11874;48.228;11.684;2022-11-15T09:18:42;7.80;99.90
23403;DHT22;11874;48.228;11.684;2022-11-15T09:21:10;7.80;99.90
23403;DHT22;11874;48.228;11.684;2022-11-15T09:23:38;7.80;99.90
23403;DHT22;11874;48.228;11.684;2022-11-15T09:26:07;7.80;99.90
23403;DHT22;11874;48.228;11.684;2022-11-15T09:28:37;7.80;99.90
23403;DHT22;11874;48.228;11.684;2022-11-15T09:31:08;7.80;99.90
23403;DHT22;11874;48.228;11.684;2022-11-15T09:33:36;7.80;99.90
23403;DHT22;11874;48.228;11.684;2022-11-15T09:36:06;7.80;99.90
23403;DHT22;11874;48.228;11.684;2022-11-15T09:38:34;7.90;99.90
23403;DHT22;11874;48.228;11.684;2022-11-15T09:41:25;7.90;99.90
23403;DHT22;11874;48.228;11.684;2022-11-15T09:44:09;7.90;99.90
23403;DHT22;11874;48.228;11.684;2022-11-15T09:46:57;7.90;99.90
23403;DHT22;11874;48.228;11.684;2022-11-15T09:49:29;8.00;99.90
23403;DHT22;11874;48.228;11.684;2022-11-15T09:51:58;8.00;99.90
23403;DHT22;11874;48.228;11.684;2022-11-15T09:54:29;8.00;99.90
23403;DHT22;11874;48.228;11.684;2022-11-15T09:57:22;8.00;99.90
23403;DHT22;11874;48.228;11.684;2022-11-15T10:00:02;8.10;99.90
23403;DHT22;11874;48.228;11.684;2022-11-15T10:02:59;8.10;99.90
23403;DHT22;11874;48.228;11.684;2022-11-15T10:05:29;8.10;99.90
23403;DHT22;11874;48.228;11.684;2022-11-15T10:08:03;8.00;99.90
23403;DHT22;11874;48.228;11.684;2022-11-15T10:10:39;8.10;99.90
23403;DHT22;11874;48.228;11.684;2022-11-15T10:13:13;8.20;99.90
23403;DHT22;11874;48.228;11.684;2022-11-15T10:15:46;8.10;99.90
23403;DHT22;11874;48.228;11.684;2022-11-15T10:18:16;8.20;99.90
23403;DHT22;11874;48.228;11.684;2022-11-15T10:20:48;8.20;99.90
23403;DHT22;11874;48.228;11.684;2022-11-15T10:23:18;8.10;99.90
23403;DHT22;11874;48.228;11.684;2022-11-15T10:25:47;8.20;99.90
23403;DHT22;11874;48.228;11.684;2022-11-15T10:28:22;8.30;99.90
23403;DHT22;11874;48.228;11.684;2022-11-15T10:30:53;8.20;99.90
23403;DHT22;11874;48.228;11.684;2022-11-15T10:33:27;8.40;99.90
23403;DHT22;11874;48.228;11.684;2022-11-15T10:36:18;8.30;99.90
23403;DHT22;11874;48.228;11.684;2022-11-15T10:38:55;8.40;99.90
23403;DHT22;11874;48.228;11.684;2022-11-15T10:41:36;8.40;99.90
23403;DHT22;11874;48.228;11.684;2022-11-15T10:44:26;8.50;99.90
23403;DHT22;11874;48.228;11.684;2022-11-15T10:47:24;8.40;99.90
23403;DHT22;11874;48.228;11.684;2022-11-15T10:49:58;8.50;99.90
23403;DHT22;11874;48.228;11.684;2022-11-15T10:52:27;8.60;99.90
23403;DHT22;11874;48.228;11.684;2022-11-15T10:54:59;8.60;99.90
23403;DHT22;11874;48.228;11.684;2022-11-15T10:57:31;8.70;99.90
23403;DHT22;11874;48.228;11.684;2022-11-15T11:00:03;8.70;99.90
23403;DHT22;11874;48.228;11.684;2022-11-15T11:02:35;8.70;99.90
23403;DHT22;11874;48.228;11.684;2022-11-15T11:05:04;8.80;99.90
23403;DHT22;11874;48.228;11.684;2022-11-15T11:07:34;8.80;99.90
23403;DHT22;11874;48.228;11.684;2022-11-15T11:10:05;8.80;99.90
23403;DHT22;11874;48.228;11.684;2022-11-15T11:13:14;8.80;99.90
23403;DHT22;11874;48.228;11.684;2022-11-15T11:15:44;8.80;99.90
23403;DHT22;11874;48.228;11.684;2022-11-15T11:18:19;8.80;99.90
23403;DHT22;11874;48.228;11.684;2022-11-15T11:20:56;8.90;99.90
23403;DHT22;11874;48.228;11.684;2022-11-15T11:23:37;8.90;99.90
23403;DHT22;11874;48.228;11.684;2022-11-15T11:26:19;8.90;99.90
23403;DHT22;11874;48.228;11.684;2022-11-15T11:28:59;9.00;99.90
23403;DHT22;11874;48.228;11.684;2022-11-15T11:31:36;9.00;99.90
23403;DHT22;11874;48.228;11.684;2022-11-15T11:34:15;9.30;99.90
23403;DHT22;11874;48.228;11.684;2022-11-15T11:36:49;9.10;99.90
23403;DHT22;11874;48.228;11.684;2022-11-15T11:39:25;9.10;99.90
23403;DHT22;11874;48.228;11.684;2022-11-15T11:42:03;9.10;99.90
23403;DHT22;11874;48.228;11.684;2022-11-15T11:44:42;9.20;99.90
23403;DHT22;11874;48.228;11.684;2022-11-15T11:47:21;9.20;99.90
23403;DHT22;11874;48.228;11.684;2022-11-15T11:49:52;9.30;99.90
23403;DHT22;11874;48.228;11.684;2022-11-15T11:52:24;9.30;99.90
23403;DHT22;11874;48.228;11.684;2022-11-15T11:54:59;9.30;99.90
23403;DHT22;11874;48.228;11.684;2022-11-15T11:57:34;9.40;99.90
23403;DHT22;11874;48.228;11.684;2022-11-15T12:00:15;9.40;99.90
23403;DHT22;11874;48.228;11.684;2022-11-15T12:02:49;9.50;99.90
23403;DHT22;11874;48.228;11.684;2022-11-15T12:05:24;9.60;99.90
23403;DHT22;11874;48.228;11.684;2022-11-15T12:07:59;9.70;99.90
23403;DHT22;11874;48.228;11.684;2022-11-15T12:10:31;9.80;99.90
23403;DHT22;11874;48.228;11.684;2022-11-15T12:13:05;9.90;99.90
23403;DHT22;11874;48.228;11.684;2022-11-15T12:15:39;10.00;99.90
23403;DHT22;11874;48.228;11.684;2022-11-15T12:18:12;10.20;99.90
23403;DHT22;11874;48.228;11.684;2022-11-15T12:20:47;10.60;99.90
23403;DHT22;11874;48.228;11.684;2022-11-15T12:23:20;10.70;99.90
23403;DHT22;11874;48.228;11.684;2022-11-15T12:25:52;10.90;99.90
23403;DHT22;11874;48.228;11.684;2022-11-15T12:28:34;11.10;99.90
23403;DHT22;11874;48.228;11.684;2022-11-15T12:31:06;11.30;99.90
23403;DHT22;11874;48.228;11.684;2022-11-15T12:33:41;11.50;99.90
23403;DHT22;11874;48.228;11.684;2022-11-15T12:36:12;11.60;99.90
23403;DHT22;11874;48.228;11.684;2022-11-15T12:38:58;11.80;99.90
23403;DHT22;11874;48.228;11.684;2022-11-15T12:41:28;12.10;99.90
23403;DHT22;11874;48.228;11.684;2022-11-15T12:43:56;12.50;99.90
23403;DHT22;11874;48.228;11.684;2022-11-15T12:49:44;13.20;99.90
23403;DHT22;11874;48.228;11.684;2022-11-15T12:52:14;13.40;99.90
23403;DHT22;11874;48.228;11.684;2022-11-15T12:54:51;13.70;99.90
23403;DHT22;11874;48.228;11.684;2022-11-15T12:57:32;14.00;99.90
23403;DHT22;11874;48.228;11.684;2022-11-15T13:00:02;14.20;99.90
23403;DHT22;11874;48.228;11.684;2022-11-15T13:02:34;14.40;99.90
23403;DHT22;11874;48.228;11.684;2022-11-15T13:08:48;14.80;99.90
23403;DHT22;11874;48.228;11.684;2022-11-15T13:11:46;15.10;99.90
23403;DHT22;11874;48.228;11.684;2022-11-15T13:14:47;15.30;99.90
23403;DHT22;11874;48.228;11.684;2022-11-15T13:17:31;15.40;99.90
23403;DHT22;11874;48.228;11.684;2022-11-15T13:20:17;15.60;99.90
23403;DHT22;11874;48.228;11.684;2022-11-15T13:22:47;15.70;99.90
23403;DHT22;11874;48.228;11.684;2022-11-15T13:25:48;15.90;99.90
23403;DHT22;11874;48.228;11.684;2022-11-15T13:28:21;16.00;99.90
23403;DHT22;11874;48.228;11.684;2022-11-15T13:30:51;15.90;99.90
23403;DHT22;11874;48.228;11.684;2022-11-15T13:33:22;15.80;99.90
23403;DHT22;11874;48.228;11.684;2022-11-15T13:35:55;15.80;99.90
23403;DHT22;11874;48.228;11.684;2022-11-15T13:38:28;15.70;99.90
23403;DHT22;11874;48.228;11.684;2022-11-15T13:40:59;15.60;99.90
23403;DHT22;11874;48.228;11.684;2022-11-15T13:43:30;15.60;99.90
23403;DHT22;11874;48.228;11.684;2022-11-15T13:46:10;15.50;99.90
23403;DHT22;11874;48.228;11.684;2022-11-15T13:48:38;15.50;99.90
23403;DHT22;11874;48.228;11.684;2022-11-15T13:51:10;15.60;99.90
23403;DHT22;11874;48.228;11.684;2022-11-15T13:53:43;15.60;99.90
23403;DHT22;11874;48.228;11.684;2022-11-15T13:56:15;15.40;99.90
23403;DHT22;11874;48.228;11.684;2022-11-15T13:58:43;15.30;99.90
23403;DHT22;11874;48.228;11.684;2022-11-15T14:01:16;15.20;99.90
23403;DHT22;11874;48.228;11.684;2022-11-15T14:03:49;15.10;99.90
23403;DHT22;11874;48.228;11.684;2022-11-15T14:06:20;15.10;99.90
23403;DHT22;11874;48.228;11.684;2022-11-15T14:09:01;15.00;99.90
23403;DHT22;11874;48.228;11.684;2022-11-15T14:11:30;14.80;99.90
23403;DHT22;11874;48.228;11.684;2022-11-15T14:14:13;14.50;99.90
23403;DHT22;11874;48.228;11.684;2022-11-15T14:16:43;14.40;99.90
23403;DHT22;11874;48.228;11.684;2022-11-15T14:19:13;14.30;99.90
23403;DHT22;11874;48.228;11.684;2022-11-15T14:22:18;14.30;99.90
23403;DHT22;11874;48.228;11.684;2022-11-15T14:27:32;14.30;99.90
23403;DHT22;11874;48.228;11.684;2022-11-15T14:30:01;14.20;99.90
23403;DHT22;11874;48.228;11.684;2022-11-15T14:32:30;14.00;99.90
23403;DHT22;11874;48.228;11.684;2022-11-15T14:35:11;13.90;99.90
23403;DHT22;11874;48.228;11.684;2022-11-15T14:37:39;13.80;99.90
23403;DHT22;11874;48.228;11.684;2022-11-15T14:40:12;13.80;99.90
23403;DHT22;11874;48.228;11.684;2022-11-15T14:42:42;13.70;99.90
23403;DHT22;11874;48.228;11.684;2022-11-15T14:45:13;13.60;99.90
23403;DHT22;11874;48.228;11.684;2022-11-15T14:47:41;13.50;99.90
23403;DHT22;11874;48.228;11.684;2022-11-15T14:50:14;13.40;99.90
23403;DHT22;11874;48.228;11.684;2022-11-15T14:52:43;13.30;99.90
23403;DHT22;11874;48.228;11.684;2022-11-15T14:55:16;13.10;99.90
23403;DHT22;11874;48.228;11.684;2022-11-15T14:57:46;13.00;99.90
23403;DHT22;11874;48.228;11.684;2022-11-15T15:00:15;12.80;99.90
23403;DHT22;11874;48.228;11.684;2022-11-15T15:02:44;12.70;99.90
23403;DHT22;11874;48.228;11.684;2022-11-15T15:05:14;12.50;99.90
23403;DHT22;11874;48.228;11.684;2022-11-15T15:07:43;12.40;99.90
23403;DHT22;11874;48.228;11.684;2022-11-15T15:10:12;12.30;99.90
23403;DHT22;11874;48.228;11.684;2022-11-15T15:13:02;12.10;99.90
23403;DHT22;11874;48.228;11.684;2022-11-15T15:15:33;12.10;99.90
23403;DHT22;11874;48.228;11.684;2022-11-15T15:18:01;12.00;99.90
23403;DHT22;11874;48.228;11.684;2022-11-15T15:20:29;11.90;99.90
23403;DHT22;11874;48.228;11.684;2022-11-15T15:22:57;11.80;99.90
23403;DHT22;11874;48.228;11.684;2022-11-15T15:25:28;11.70;99.90
23403;DHT22;11874;48.228;11.684;2022-11-15T15:27:56;11.70;99.90
23403;DHT22;11874;48.228;11.684;2022-11-15T15:30:28;11.60;99.90
23403;DHT22;11874;48.228;11.684;2022-11-15T15:32:56;11.50;99.90
23403;DHT22;11874;48.228;11.684;2022-11-15T15:35:28;11.50;99.90
23403;DHT22;11874;48.228;11.684;2022-11-15T15:37:56;11.40;99.90
23403;DHT22;11874;48.228;11.684;2022-11-15T15:40:27;11.30;99.90
23403;DHT22;11874;48.228;11.684;2022-11-15T15:42:55;11.30;99.90
23403;DHT22;11874;48.228;11.684;2022-11-15T15:45:25;11.20;99.90
23403;DHT22;11874;48.228;11.684;2022-11-15T15:47:53;11.10;99.90
23403;DHT22;11874;48.228;11.684;2022-11-15T15:50:24;11.10;99.90
23403;DHT22;11874;48.228;11.684;2022-11-15T15:52:53;11.10;99.90
23403;DHT22;11874;48.228;11.684;2022-11-15T15:55:22;11.00;99.90
23403;DHT22;11874;48.228;11.684;2022-11-15T15:57:50;11.00;99.90
23403;DHT22;11874;48.228;11.684;2022-11-15T16:00:19;10.90;99.90
23403;DHT22;11874;48.228;11.684;2022-11-15T16:02:49;10.90;99.90
23403;DHT22;11874;48.228;11.684;2022-11-15T16:05:17;10.80;99.90
23403;DHT22;11874;48.228;11.684;2022-11-15T16:07:45;10.80;99.90